sensor_id;sensor_type;location;lat;lon;timestamp;temperature;humidity
43665;DHT22;29263;48.172;11.484;2023-03-01T00:01:18;1.80;99.90
43665;DHT22;29263;48.172;11.484;2023-03-01T00:03:44;1.80;99.90
43665;DHT22;29263;48.172;11.484;2023-03-01T00:06:10;1.80;99.90
43665;DHT22;29263;48.172;11.484;2023-03-01T00:08:36;1.70;99.90
43665;DHT22;29263;48.172;11.484;2023-03-01T00:11:20;1.70;99.90
43665;DHT22;29263;48.172;11.484;2023-03-01T00:13:48;1.80;99.90
43665;DHT22;29263;48.172;11.484;2023-03-01T00:16:18;1.70;99.90
43665;DHT22;29263;48.172;11.484;2023-03-01T00:18:44;1.80;99.90
43665;DHT22;29263;48.172;11.484;2023-03-01T00:21:10;1.70;99.90
43665;DHT22;29263;48.172;11.484;2023-03-01T00:23:36;1.70;99.90
43665;DHT22;29263;48.172;11.484;2023-03-01T00:26:05;1.70;99.90
43665;DHT22;29263;48.172;11.484;2023-03-01T00:28:31;1.70;99.90
43665;DHT22;29263;48.172;11.484;2023-03-01T00:31:07;1.70;99.90
43665;DHT22;29263;48.172;11.484;2023-03-01T00:33:33;1.70;99.90
43665;DHT22;29263;48.172;11.484;2023-03-01T00:35:59;1.70;99.90
43665;DHT22;29263;48.172;11.484;2023-03-01T00:38:25;1.70;99.90
43665;DHT22;29263;48.172;11.484;2023-03-01T00:40:50;1.70;99.90
43665;DHT22;29263;48.172;11.484;2023-03-01T00:43:16;1.80;99.90
43665;DHT22;29263;48.172;11.484;2023-03-01T00:45:42;1.70;99.90
43665;DHT22;29263;48.172;11.484;2023-03-01T00:48:07;1.70;99.90
43665;DHT22;29263;48.172;11.484;2023-03-01T00:50:33;1.60;99.90
43665;DHT22;29263;48.172;11.484;2023-03-01T00:52:58;1.60;99.90
43665;DHT22;29263;48.172;11.484;2023-03-01T00:55:24;1.70;99.90
43665;DHT22;29263;48.172;11.484;2023-03-01T00:57:50;1.70;99.90
43665;DHT22;29263;48.172;11.484;2023-03-01T01:00:17;1.70;99.90
43665;DHT22;29263;48.172;11.484;2023-03-01T01:02:42;1.60;99.90
43665;DHT22;29263;48.172;11.484;2023-03-01T01:05:08;1.60;99.90
43665;DHT22;29263;48.172;11.484;2023-03-01T01:07:38;1.60;99.90
43665;DHT22;29263;48.172;11.484;2023-03-01T01:10:04;1.70;99.90
43665;DHT22;29263;48.172;11.484;2023-03-01T01:12:30;1.60;99.90
43665;DHT22;29263;48.172;11.484;2023-03-01T01:14:56;1.60;99.90
43665;DHT22;29263;48.172;11.484;2023-03-01T01:17:21;1.60;99.90
43665;DHT22;29263;48.172;11.484;2023-03-01T01:19:47;1.60;99.90
43665;DHT22;29263;48.172;11.484;2023-03-01T01:22:13;1.60;99.90
43665;DHT22;29263;48.172;11.484;2023-03-01T01:24:38;1.60;99.90
43665;DHT22;29263;48.172;11.484;2023-03-01T01:27:07;1.60;99.90
43665;DHT22;29263;48.172;11.484;2023-03-01T01:29:32;1.70;99.90
43665;DHT22;29263;48.172;11.484;2023-03-01T01:31:58;1.70;99.90
43665;DHT22;29263;48.172;11.484;2023-03-01T01:34:24;1.60;99.90
43665;DHT22;29263;48.172;11.484;2023-03-01T01:36:53;1.50;99.90
43665;DHT22;29263;48.172;11.484;2023-03-01T01:39:22;1.60;99.90
43665;DHT22;29263;48.172;11.484;2023-03-01T01:41:48;1.60;99.90
43665;DHT22;29263;48.172;11.484;2023-03-01T01:44:20;1.60;99.90
43665;DHT22;29263;48.172;11.484;2023-03-01T01:46:54;1.60;99.90
43665;DHT22;29263;48.172;11.484;2023-03-01T01:54:48;1.60;99.90
43665;DHT22;29263;48.172;11.484;2023-03-01T01:57:18;1.60;99.90
43665;DHT22;29263;48.172;11.484;2023-03-01T01:59:49;1.60;99.90
43665;DHT22;29263;48.172;11.484;2023-03-01T02:02:16;1.60;99.90
43665;DHT22;29263;48.172;11.484;2023-03-01T02:04:42;1.60;99.90
43665;DHT22;29263;48.172;11.484;2023-03-01T02:07:15;1.60;99.90
43665;DHT22;29263;48.172;11.484;2023-03-01T02:09:47;1.50;99.90
43665;DHT22;29263;48.172;11.484;2023-03-01T02:12:15;1.50;99.90
43665;DHT22;29263;48.172;11.484;2023-03-01T02:14:42;1.50;99.90
43665;DHT22;29263;48.172;11.484;2023-03-01T02:17:09;1.40;99.90
43665;DHT22;29263;48.172;11.484;2023-03-01T02:22:24;1.50;99.90
43665;DHT22;29263;48.172;11.484;2023-03-01T02:27:21;1.50;99.90
43665;DHT22;29263;48.172;11.484;2023-03-01T02:29:50;1.50;99.90
43665;DHT22;29263;48.172;11.484;2023-03-01T02:32:16;1.50;99.90
43665;DHT22;29263;48.172;11.484;2023-03-01T02:34:52;1.50;99.90
43665;DHT22;29263;48.172;11.484;2023-03-01T02:37:19;1.50;99.90
43665;DHT22;29263;48.172;11.484;2023-03-01T02:39:55;1.50;99.90
43665;DHT22;29263;48.172;11.484;2023-03-01T02:42:28;1.40;99.90
43665;DHT22;29263;48.172;11.484;2023-03-01T02:44:55;1.40;99.90
43665;DHT22;29263;48.172;11.484;2023-03-01T02:47:21;1.40;99.90
43665;DHT22;29263;48.172;11.484;2023-03-01T02:49:47;1.40;99.90
43665;DHT22;29263;48.172;11.484;2023-03-01T02:52:33;1.40;99.90
43665;DHT22;29263;48.172;11.484;2023-03-01T02:55:10;1.40;99.90
43665;DHT22;29263;48.172;11.484;2023-03-01T02:57:38;1.40;99.90
43665;DHT22;29263;48.172;11.484;2023-03-01T03:00:08;1.40;99.90
43665;DHT22;29263;48.172;11.484;2023-03-01T03:02:35;1.40;99.90
43665;DHT22;29263;48.172;11.484;2023-03-01T03:05:14;1.40;99.90
43665;DHT22;29263;48.172;11.484;2023-03-01T03:07:42;1.40;99.90
43665;DHT22;29263;48.172;11.484;2023-03-01T03:10:13;1.40;99.90
43665;DHT22;29263;48.172;11.484;2023-03-01T03:12:39;1.40;99.90
43665;DHT22;29263;48.172;11.484;2023-03-01T03:15:06;1.40;99.90
43665;DHT22;29263;48.172;11.484;2023-03-01T03:17:38;1.40;99.90
43665;DHT22;29263;48.172;11.484;2023-03-01T03:20:07;1.40;99.90
43665;DHT22;29263;48.172;11.484;2023-03-01T03:22:40;1.40;99.90
43665;DHT22;29263;48.172;11.484;2023-03-01T03:25:07;1.40;99.90
43665;DHT22;29263;48.172;11.484;2023-03-01T03:27:40;1.30;99.90
43665;DHT22;29263;48.172;11.484;2023-03-01T03:30:08;1.30;99.90
43665;DHT22;29263;48.172;11.484;2023-03-01T03:32:38;1.30;99.90
43665;DHT22;29263;48.172;11.484;2023-03-01T03:35:04;1.30;99.90
43665;DHT22;29263;48.172;11.484;2023-03-01T03:37:38;1.30;99.90
43665;DHT22;29263;48.172;11.484;2023-03-01T03:40:22;1.30;99.90
43665;DHT22;29263;48.172;11.484;2023-03-01T03:42:48;1.20;99.90
43665;DHT22;29263;48.172;11.484;2023-03-01T03:45:15;1.20;99.90
43665;DHT22;29263;48.172;11.484;2023-03-01T03:47:41;1.20;99.90
43665;DHT22;29263;48.172;11.484;2023-03-01T03:50:08;1.20;99.90
43665;DHT22;29263;48.172;11.484;2023-03-01T03:52:34;1.10;99.90
43665;DHT22;29263;48.172;11.484;2023-03-01T03:55:00;1.10;99.90
43665;DHT22;29263;48.172;11.484;2023-03-01T03:57:25;1.10;99.90
43665;DHT22;29263;48.172;11.484;2023-03-01T03:59:51;1.20;99.90
43665;DHT22;29263;48.172;11.484;2023-03-01T04:02:16;1.10;99.90
43665;DHT22;29263;48.172;11.484;2023-03-01T04:04:48;1.10;99.90
43665;DHT22;29263;48.172;11.484;2023-03-01T04:07:15;1.10;99.90
43665;DHT22;29263;48.172;11.484;2023-03-01T04:09:42;1.10;99.90
43665;DHT22;29263;48.172;11.484;2023-03-01T04:12:08;1.10;99.90
43665;DHT22;29263;48.172;11.484;2023-03-01T04:14:34;1.10;99.90
43665;DHT22;29263;48.172;11.484;2023-03-01T04:17:00;1.00;99.90
43665;DHT22;29263;48.172;11.484;2023-03-01T04:19:26;1.00;99.90
43665;DHT22;29263;48.172;11.484;2023-03-01T04:21:52;1.00;99.90
43665;DHT22;29263;48.172;11.484;2023-03-01T04:24:18;1.00;99.90
43665;DHT22;29263;48.172;11.484;2023-03-01T04:26:44;1.00;99.90
43665;DHT22;29263;48.172;11.484;2023-03-01T04:29:09;1.00;99.90
43665;DHT22;29263;48.172;11.484;2023-03-01T04:31:35;1.00;99.90
43665;DHT22;29263;48.172;11.484;2023-03-01T04:34:01;1.00;99.90
43665;DHT22;29263;48.172;11.484;2023-03-01T04:36:28;1.00;99.90
43665;DHT22;29263;48.172;11.484;2023-03-01T04:38:55;1.00;99.90
43665;DHT22;29263;48.172;11.484;2023-03-01T04:41:22;1.00;99.90
43665;DHT22;29263;48.172;11.484;2023-03-01T04:43:49;1.00;99.90
43665;DHT22;29263;48.172;11.484;2023-03-01T04:46:17;1.00;99.90
43665;DHT22;29263;48.172;11.484;2023-03-01T04:48:44;0.90;99.90
43665;DHT22;29263;48.172;11.484;2023-03-01T04:51:10;0.90;99.90
43665;DHT22;29263;48.172;11.484;2023-03-01T04:53:39;0.90;99.90
43665;DHT22;29263;48.172;11.484;2023-03-01T04:56:07;0.90;99.90
43665;DHT22;29263;48.172;11.484;2023-03-01T04:58:33;0.80;99.90
43665;DHT22;29263;48.172;11.484;2023-03-01T05:00:59;0.80;99.90
43665;DHT22;29263;48.172;11.484;2023-03-01T05:03:25;0.80;99.90
43665;DHT22;29263;48.172;11.484;2023-03-01T05:05:51;0.80;99.90
43665;DHT22;29263;48.172;11.484;2023-03-01T05:08:18;0.80;99.90
43665;DHT22;29263;48.172;11.484;2023-03-01T05:10:53;0.80;99.90
43665;DHT22;29263;48.172;11.484;2023-03-01T05:13:20;0.80;99.90
43665;DHT22;29263;48.172;11.484;2023-03-01T05:15:57;0.80;99.90
43665;DHT22;29263;48.172;11.484;2023-03-01T05:18:24;0.70;99.90
43665;DHT22;29263;48.172;11.484;2023-03-01T05:20:52;0.70;99.90
43665;DHT22;29263;48.172;11.484;2023-03-01T05:23:18;0.70;99.90
43665;DHT22;29263;48.172;11.484;2023-03-01T05:25:44;0.70;99.90
43665;DHT22;29263;48.172;11.484;2023-03-01T05:28:13;0.70;99.90
43665;DHT22;29263;48.172;11.484;2023-03-01T05:30:39;0.70;99.90
43665;DHT22;29263;48.172;11.484;2023-03-01T05:33:05;0.60;99.90
43665;DHT22;29263;48.172;11.484;2023-03-01T05:35:36;0.60;99.90
43665;DHT22;29263;48.172;11.484;2023-03-01T05:38:02;0.50;99.90
43665;DHT22;29263;48.172;11.484;2023-03-01T05:40:28;0.50;99.90
43665;DHT22;29263;48.172;11.484;2023-03-01T05:42:56;0.50;99.90
43665;DHT22;29263;48.172;11.484;2023-03-01T05:45:23;0.50;99.90
43665;DHT22;29263;48.172;11.484;2023-03-01T05:47:50;0.50;99.90
43665;DHT22;29263;48.172;11.484;2023-03-01T05:52:48;0.50;99.90
43665;DHT22;29263;48.172;11.484;2023-03-01T05:55:15;0.50;99.90
43665;DHT22;29263;48.172;11.484;2023-03-01T05:57:41;0.50;99.90
43665;DHT22;29263;48.172;11.484;2023-03-01T06:00:08;0.50;99.90
43665;DHT22;29263;48.172;11.484;2023-03-01T06:02:34;0.40;99.90
43665;DHT22;29263;48.172;11.484;2023-03-01T06:05:00;0.40;99.90
43665;DHT22;29263;48.172;11.484;2023-03-01T06:07:25;0.50;99.90
43665;DHT22;29263;48.172;11.484;2023-03-01T06:09:51;0.50;99.90
43665;DHT22;29263;48.172;11.484;2023-03-01T06:12:17;0.50;99.90
43665;DHT22;29263;48.172;11.484;2023-03-01T06:14:42;0.40;99.90
43665;DHT22;29263;48.172;11.484;2023-03-01T06:17:08;0.50;99.90
43665;DHT22;29263;48.172;11.484;2023-03-01T06:19:34;0.40;99.90
43665;DHT22;29263;48.172;11.484;2023-03-01T06:21:59;0.50;99.90
43665;DHT22;29263;48.172;11.484;2023-03-01T06:24:25;0.40;99.90
43665;DHT22;29263;48.172;11.484;2023-03-01T06:26:52;0.40;99.90
43665;DHT22;29263;48.172;11.484;2023-03-01T06:29:18;0.50;99.90
43665;DHT22;29263;48.172;11.484;2023-03-01T06:31:43;0.40;99.90
43665;DHT22;29263;48.172;11.484;2023-03-01T06:34:14;0.40;99.90
43665;DHT22;29263;48.172;11.484;2023-03-01T06:36:40;0.40;99.90
43665;DHT22;29263;48.172;11.484;2023-03-01T06:39:06;0.40;99.90
43665;DHT22;29263;48.172;11.484;2023-03-01T06:41:32;0.40;99.90
43665;DHT22;29263;48.172;11.484;2023-03-01T06:43:58;0.40;99.90
43665;DHT22;29263;48.172;11.484;2023-03-01T06:46:25;0.40;99.90
43665;DHT22;29263;48.172;11.484;2023-03-01T06:48:50;0.40;99.90
43665;DHT22;29263;48.172;11.484;2023-03-01T06:51:16;0.40;99.90
43665;DHT22;29263;48.172;11.484;2023-03-01T06:53:41;0.40;99.90
43665;DHT22;29263;48.172;11.484;2023-03-01T06:56:07;0.40;99.90
43665;DHT22;29263;48.172;11.484;2023-03-01T06:58:33;0.40;99.90
43665;DHT22;29263;48.172;11.484;2023-03-01T07:00:59;0.40;99.90
43665;DHT22;29263;48.172;11.484;2023-03-01T07:03:25;0.50;99.90
43665;DHT22;29263;48.172;11.484;2023-03-01T07:05:51;0.50;99.90
43665;DHT22;29263;48.172;11.484;2023-03-01T07:08:19;0.50;99.90
43665;DHT22;29263;48.172;11.484;2023-03-01T07:10:45;0.60;99.90
43665;DHT22;29263;48.172;11.484;2023-03-01T07:13:11;0.60;99.90
43665;DHT22;29263;48.172;11.484;2023-03-01T07:15:36;0.50;99.90
43665;DHT22;29263;48.172;11.484;2023-03-01T07:18:02;0.50;99.90
43665;DHT22;29263;48.172;11.484;2023-03-01T07:20:28;0.50;99.90
43665;DHT22;29263;48.172;11.484;2023-03-01T07:22:55;0.60;99.90
43665;DHT22;29263;48.172;11.484;2023-03-01T07:25:22;0.60;99.90
43665;DHT22;29263;48.172;11.484;2023-03-01T07:27:54;0.70;99.90
43665;DHT22;29263;48.172;11.484;2023-03-01T07:30:20;0.70;99.90
43665;DHT22;29263;48.172;11.484;2023-03-01T07:32:47;0.70;99.90
43665;DHT22;29263;48.172;11.484;2023-03-01T07:35:13;0.80;99.90
43665;DHT22;29263;48.172;11.484;2023-03-01T07:37:40;0.80;99.90
43665;DHT22;29263;48.172;11.484;2023-03-01T07:40:06;0.80;99.90
43665;DHT22;29263;48.172;11.484;2023-03-01T07:42:32;0.70;99.90
43665;DHT22;29263;48.172;11.484;2023-03-01T07:44:58;0.70;99.90
43665;DHT22;29263;48.172;11.484;2023-03-01T07:47:23;0.70;99.90
43665;DHT22;29263;48.172;11.484;2023-03-01T07:49:49;0.80;99.90
43665;DHT22;29263;48.172;11.484;2023-03-01T07:52:15;0.80;99.90
43665;DHT22;29263;48.172;11.484;2023-03-01T07:54:42;0.80;99.90
43665;DHT22;29263;48.172;11.484;2023-03-01T07:57:09;0.90;99.90
43665;DHT22;29263;48.172;11.484;2023-03-01T07:59:35;1.00;99.90
43665;DHT22;29263;48.172;11.484;2023-03-01T08:02:01;1.00;99.90
43665;DHT22;29263;48.172;11.484;2023-03-01T08:04:26;1.00;99.90
43665;DHT22;29263;48.172;11.484;2023-03-01T08:06:53;1.10;99.90
43665;DHT22;29263;48.172;11.484;2023-03-01T08:09:19;1.20;99.90
43665;DHT22;29263;48.172;11.484;2023-03-01T08:11:44;1.20;99.90
43665;DHT22;29263;48.172;11.484;2023-03-01T08:14:10;1.30;99.90
43665;DHT22;29263;48.172;11.484;2023-03-01T08:16:36;1.30;99.90
43665;DHT22;29263;48.172;11.484;2023-03-01T08:19:09;1.40;99.90
43665;DHT22;29263;48.172;11.484;2023-03-01T08:21:36;1.40;99.90
43665;DHT22;29263;48.172;11.484;2023-03-01T08:24:05;1.40;99.90
43665;DHT22;29263;48.172;11.484;2023-03-01T08:26:32;1.40;99.90
43665;DHT22;29263;48.172;11.484;2023-03-01T08:29:00;1.50;99.90
43665;DHT22;29263;48.172;11.484;2023-03-01T08:31:30;1.50;99.90
43665;DHT22;29263;48.172;11.484;2023-03-01T08:33:59;1.60;99.80
43665;DHT22;29263;48.172;11.484;2023-03-01T08:36:30;1.60;99.90
43665;DHT22;29263;48.172;11.484;2023-03-01T08:38:56;1.60;99.90
43665;DHT22;29263;48.172;11.484;2023-03-01T08:41:22;1.70;99.90
43665;DHT22;29263;48.172;11.484;2023-03-01T08:43:47;1.70;99.40
43665;DHT22;29263;48.172;11.484;2023-03-01T08:46:13;1.80;98.90
43665;DHT22;29263;48.172;11.484;2023-03-01T08:48:39;1.80;97.10
43665;DHT22;29263;48.172;11.484;2023-03-01T08:51:15;1.90;97.30
43665;DHT22;29263;48.172;11.484;2023-03-01T08:53:41;1.90;95.30
43665;DHT22;29263;48.172;11.484;2023-03-01T08:56:08;1.90;95.50
43665;DHT22;29263;48.172;11.484;2023-03-01T08:58:34;1.90;96.10
43665;DHT22;29263;48.172;11.484;2023-03-01T09:01:00;1.90;97.30
43665;DHT22;29263;48.172;11.484;2023-03-01T09:03:26;2.00;97.60
43665;DHT22;29263;48.172;11.484;2023-03-01T09:05:52;2.00;94.20
43665;DHT22;29263;48.172;11.484;2023-03-01T09:08:19;2.10;96.80
43665;DHT22;29263;48.172;11.484;2023-03-01T09:10:45;2.10;94.20
43665;DHT22;29263;48.172;11.484;2023-03-01T09:13:11;2.10;93.90
43665;DHT22;29263;48.172;11.484;2023-03-01T09:15:38;2.20;92.40
43665;DHT22;29263;48.172;11.484;2023-03-01T09:18:04;2.20;93.40
43665;DHT22;29263;48.172;11.484;2023-03-01T09:20:31;2.30;93.60
43665;DHT22;29263;48.172;11.484;2023-03-01T09:22:57;2.40;94.30
43665;DHT22;29263;48.172;11.484;2023-03-01T09:25:25;2.40;93.50
43665;DHT22;29263;48.172;11.484;2023-03-01T09:27:52;2.40;93.00
43665;DHT22;29263;48.172;11.484;2023-03-01T09:30:18;2.40;93.30
43665;DHT22;29263;48.172;11.484;2023-03-01T09:32:43;2.40;93.80
43665;DHT22;29263;48.172;11.484;2023-03-01T09:35:10;2.50;93.50
43665;DHT22;29263;48.172;11.484;2023-03-01T09:37:37;2.50;92.50
43665;DHT22;29263;48.172;11.484;2023-03-01T09:40:05;2.60;92.40
43665;DHT22;29263;48.172;11.484;2023-03-01T09:42:33;2.60;93.90
43665;DHT22;29263;48.172;11.484;2023-03-01T09:47:52;2.80;91.20
43665;DHT22;29263;48.172;11.484;2023-03-01T09:50:20;2.80;90.30
43665;DHT22;29263;48.172;11.484;2023-03-01T09:53:10;2.80;90.60
43665;DHT22;29263;48.172;11.484;2023-03-01T09:56:04;2.90;91.70
43665;DHT22;29263;48.172;11.484;2023-03-01T10:01:29;2.90;91.30
43665;DHT22;29263;48.172;11.484;2023-03-01T10:06:25;3.10;90.80
43665;DHT22;29263;48.172;11.484;2023-03-01T10:08:56;3.00;89.30
43665;DHT22;29263;48.172;11.484;2023-03-01T10:11:31;3.10;90.90
43665;DHT22;29263;48.172;11.484;2023-03-01T10:16:54;3.10;90.40
43665;DHT22;29263;48.172;11.484;2023-03-01T10:19:32;3.10;89.20
43665;DHT22;29263;48.172;11.484;2023-03-01T10:22:09;3.20;87.80
43665;DHT22;29263;48.172;11.484;2023-03-01T10:24:36;3.30;86.50
43665;DHT22;29263;48.172;11.484;2023-03-01T10:27:14;3.30;83.50
43665;DHT22;29263;48.172;11.484;2023-03-01T10:32:28;3.30;83.90
43665;DHT22;29263;48.172;11.484;2023-03-01T10:34:54;3.10;84.00
43665;DHT22;29263;48.172;11.484;2023-03-01T10:37:21;3.20;84.60
43665;DHT22;29263;48.172;11.484;2023-03-01T10:40:07;3.20;83.20
43665;DHT22;29263;48.172;11.484;2023-03-01T10:42:36;3.30;84.50
43665;DHT22;29263;48.172;11.484;2023-03-01T10:50:34;3.40;80.70
43665;DHT22;29263;48.172;11.484;2023-03-01T10:53:01;3.50;82.00
43665;DHT22;29263;48.172;11.484;2023-03-01T10:55:38;3.60;80.60
43665;DHT22;29263;48.172;11.484;2023-03-01T10:58:18;3.70;79.00
43665;DHT22;29263;48.172;11.484;2023-03-01T11:00:56;3.80;79.60
43665;DHT22;29263;48.172;11.484;2023-03-01T11:08:35;3.80;78.10
43665;DHT22;29263;48.172;11.484;2023-03-01T11:11:18;3.80;76.40
43665;DHT22;29263;48.172;11.484;2023-03-01T11:13:59;3.80;77.70
43665;DHT22;29263;48.172;11.484;2023-03-01T11:16:34;3.80;77.50
43665;DHT22;29263;48.172;11.484;2023-03-01T11:19:21;3.90;78.00
43665;DHT22;29263;48.172;11.484;2023-03-01T11:24:34;4.00;77.40
43665;DHT22;29263;48.172;11.484;2023-03-01T11:27:04;4.20;75.70
43665;DHT22;29263;48.172;11.484;2023-03-01T11:29:36;4.20;75.60
43665;DHT22;29263;48.172;11.484;2023-03-01T11:32:06;4.30;74.90
43665;DHT22;29263;48.172;11.484;2023-03-01T11:34:50;4.30;74.70
43665;DHT22;29263;48.172;11.484;2023-03-01T11:40:25;4.60;75.30
43665;DHT22;29263;48.172;11.484;2023-03-01T11:43:44;4.70;73.50
43665;DHT22;29263;48.172;11.484;2023-03-01T11:45:58;4.70;73.50
43665;DHT22;29263;48.172;11.484;2023-03-01T11:48:51;4.90;72.30
43665;DHT22;29263;48.172;11.484;2023-03-01T11:51:45;4.80;72.40
43665;DHT22;29263;48.172;11.484;2023-03-01T12:02:36;5.10;69.70
43665;DHT22;29263;48.172;11.484;2023-03-01T12:05:09;5.20;71.70
43665;DHT22;29263;48.172;11.484;2023-03-01T12:07:56;5.30;70.50
43665;DHT22;29263;48.172;11.484;2023-03-01T12:13:04;5.50;69.30
43665;DHT22;29263;48.172;11.484;2023-03-01T12:15:44;5.50;69.40
43665;DHT22;29263;48.172;11.484;2023-03-01T12:32:25;5.70;69.50
43665;DHT22;29263;48.172;11.484;2023-03-01T12:49:17;5.80;69.30
43665;DHT22;29263;48.172;11.484;2023-03-01T12:52:06;5.90;71.20
43665;DHT22;29263;48.172;11.484;2023-03-01T12:54:36;6.00;69.10
43665;DHT22;29263;48.172;11.484;2023-03-01T12:57:18;6.10;69.80
43665;DHT22;29263;48.172;11.484;2023-03-01T13:00:21;6.20;67.30
43665;DHT22;29263;48.172;11.484;2023-03-01T13:09:11;6.50;67.00
43665;DHT22;29263;48.172;11.484;2023-03-01T13:11:26;6.50;67.90
43665;DHT22;29263;48.172;11.484;2023-03-01T13:13:52;6.50;67.80
43665;DHT22;29263;48.172;11.484;2023-03-01T13:16:41;6.50;67.00
43665;DHT22;29263;48.172;11.484;2023-03-01T13:21:44;6.70;67.10
43665;DHT22;29263;48.172;11.484;2023-03-01T13:29:45;7.00;65.60
43665;DHT22;29263;48.172;11.484;2023-03-01T13:32:25;7.10;65.60
43665;DHT22;29263;48.172;11.484;2023-03-01T13:34:58;7.20;65.70
43665;DHT22;29263;48.172;11.484;2023-03-01T13:37:27;7.40;70.50
43665;DHT22;29263;48.172;11.484;2023-03-01T13:39:59;7.60;68.30
43665;DHT22;29263;48.172;11.484;2023-03-01T13:42:36;7.60;65.10
43665;DHT22;29263;48.172;11.484;2023-03-01T13:45:25;7.40;64.20
43665;DHT22;29263;48.172;11.484;2023-03-01T13:48:01;7.30;64.10
43665;DHT22;29263;48.172;11.484;2023-03-01T13:50:29;7.30;64.60
43665;DHT22;29263;48.172;11.484;2023-03-01T13:52:59;7.60;65.00
43665;DHT22;29263;48.172;11.484;2023-03-01T13:58:14;7.90;63.40
43665;DHT22;29263;48.172;11.484;2023-03-01T14:00:41;8.00;63.50
43665;DHT22;29263;48.172;11.484;2023-03-01T14:03:14;8.10;63.10
43665;DHT22;29263;48.172;11.484;2023-03-01T14:05:43;8.20;62.60
43665;DHT22;29263;48.172;11.484;2023-03-01T14:08:23;8.50;62.50
43665;DHT22;29263;48.172;11.484;2023-03-01T14:16:27;8.40;62.00
43665;DHT22;29263;48.172;11.484;2023-03-01T14:19:25;8.90;60.20
43665;DHT22;29263;48.172;11.484;2023-03-01T14:24:39;9.50;57.70
43665;DHT22;29263;48.172;11.484;2023-03-01T14:27:09;9.60;57.30
43665;DHT22;29263;48.172;11.484;2023-03-01T14:29:38;10.10;56.90
43665;DHT22;29263;48.172;11.484;2023-03-01T14:32:26;10.60;55.00
43665;DHT22;29263;48.172;11.484;2023-03-01T14:34:53;11.40;53.50
43665;DHT22;29263;48.172;11.484;2023-03-01T14:37:23;12.00;50.60
43665;DHT22;29263;48.172;11.484;2023-03-01T14:39:50;12.70;50.10
43665;DHT22;29263;48.172;11.484;2023-03-01T14:42:20;13.20;48.50
43665;DHT22;29263;48.172;11.484;2023-03-01T14:44:49;13.60;46.40
43665;DHT22;29263;48.172;11.484;2023-03-01T14:47:54;13.80;46.60
43665;DHT22;29263;48.172;11.484;2023-03-01T14:50:32;14.00;45.90
43665;DHT22;29263;48.172;11.484;2023-03-01T14:53:02;14.50;45.20
43665;DHT22;29263;48.172;11.484;2023-03-01T14:55:37;14.60;45.10
43665;DHT22;29263;48.172;11.484;2023-03-01T14:58:05;14.40;44.90
43665;DHT22;29263;48.172;11.484;2023-03-01T15:00:33;14.70;44.90
43665;DHT22;29263;48.172;11.484;2023-03-01T15:03:30;14.40;44.90
43665;DHT22;29263;48.172;11.484;2023-03-01T15:05:59;14.00;45.20
43665;DHT22;29263;48.172;11.484;2023-03-01T15:08:27;13.40;47.40
43665;DHT22;29263;48.172;11.484;2023-03-01T15:11:05;12.90;47.50
43665;DHT22;29263;48.172;11.484;2023-03-01T15:13:41;12.10;49.30
43665;DHT22;29263;48.172;11.484;2023-03-01T15:19:06;10.90;53.10
43665;DHT22;29263;48.172;11.484;2023-03-01T15:21:34;10.50;54.40
43665;DHT22;29263;48.172;11.484;2023-03-01T15:26:49;9.90;56.60
43665;DHT22;29263;48.172;11.484;2023-03-01T15:29:20;9.70;57.30
43665;DHT22;29263;48.172;11.484;2023-03-01T15:32:05;9.60;57.80
43665;DHT22;29263;48.172;11.484;2023-03-01T15:34:35;9.50;57.80
43665;DHT22;29263;48.172;11.484;2023-03-01T15:37:06;9.40;58.30
43665;DHT22;29263;48.172;11.484;2023-03-01T15:39:57;9.20;59.10
43665;DHT22;29263;48.172;11.484;2023-03-01T15:47:46;8.70;61.90
43665;DHT22;29263;48.172;11.484;2023-03-01T15:52:43;8.60;62.10
43665;DHT22;29263;48.172;11.484;2023-03-01T15:57:46;8.30;63.20
43665;DHT22;29263;48.172;11.484;2023-03-01T16:00:12;8.20;63.90
43665;DHT22;29263;48.172;11.484;2023-03-01T16:02:40;8.10;64.40
43665;DHT22;29263;48.172;11.484;2023-03-01T16:05:31;8.00;65.10
43665;DHT22;29263;48.172;11.484;2023-03-01T16:07:56;7.90;65.80
43665;DHT22;29263;48.172;11.484;2023-03-01T16:10:22;7.80;66.30
43665;DHT22;29263;48.172;11.484;2023-03-01T16:12:49;7.80;67.00
43665;DHT22;29263;48.172;11.484;2023-03-01T16:15:36;7.70;67.90
43665;DHT22;29263;48.172;11.484;2023-03-01T16:18:03;7.70;67.60
43665;DHT22;29263;48.172;11.484;2023-03-01T16:20:31;7.50;68.80
43665;DHT22;29263;48.172;11.484;2023-03-01T16:23:05;7.40;69.20
43665;DHT22;29263;48.172;11.484;2023-03-01T16:25:32;7.40;69.90
43665;DHT22;29263;48.172;11.484;2023-03-01T16:27:58;7.30;70.70
43665;DHT22;29263;48.172;11.484;2023-03-01T16:30:26;7.20;71.30
43665;DHT22;29263;48.172;11.484;2023-03-01T16:32:52;7.10;71.80
43665;DHT22;29263;48.172;11.484;2023-03-01T16:35:20;7.10;72.60
43665;DHT22;29263;48.172;11.484;2023-03-01T16:37:46;7.00;73.10
43665;DHT22;29263;48.172;11.484;2023-03-01T16:42:42;6.80;75.40
43665;DHT22;29263;48.172;11.484;2023-03-01T16:45:09;6.70;76.10
43665;DHT22;29263;48.172;11.484;2023-03-01T16:47:35;6.50;77.40
43665;DHT22;29263;48.172;11.484;2023-03-01T16:50:00;6.50;78.30
43665;DHT22;29263;48.172;11.484;2023-03-01T16:52:26;6.30;79.30
43665;DHT22;29263;48.172;11.484;2023-03-01T16:54:52;6.30;82.00
43665;DHT22;29263;48.172;11.484;2023-03-01T16:57:18;6.20;82.40
43665;DHT22;29263;48.172;11.484;2023-03-01T16:59:44;6.00;85.10
43665;DHT22;29263;48.172;11.484;2023-03-01T17:02:11;6.00;87.60
43665;DHT22;29263;48.172;11.484;2023-03-01T17:04:38;5.80;89.50
43665;DHT22;29263;48.172;11.484;2023-03-01T17:07:07;5.70;91.40
43665;DHT22;29263;48.172;11.484;2023-03-01T17:09:37;5.60;93.10
43665;DHT22;29263;48.172;11.484;2023-03-01T17:12:05;5.50;93.50
43665;DHT22;29263;48.172;11.484;2023-03-01T17:14:31;5.40;94.70
43665;DHT22;29263;48.172;11.484;2023-03-01T17:16:56;5.30;95.60
43665;DHT22;29263;48.172;11.484;2023-03-01T17:19:22;5.30;97.20
43665;DHT22;29263;48.172;11.484;2023-03-01T17:21:48;5.10;99.30
43665;DHT22;29263;48.172;11.484;2023-03-01T17:24:13;5.00;99.90
43665;DHT22;29263;48.172;11.484;2023-03-01T17:26:40;4.90;99.90
43665;DHT22;29263;48.172;11.484;2023-03-01T17:29:06;4.80;99.90
43665;DHT22;29263;48.172;11.484;2023-03-01T17:31:32;4.70;99.90
43665;DHT22;29263;48.172;11.484;2023-03-01T17:33:58;4.70;99.90
43665;DHT22;29263;48.172;11.484;2023-03-01T17:36:24;4.60;99.90
43665;DHT22;29263;48.172;11.484;2023-03-01T17:38:50;4.50;99.90
43665;DHT22;29263;48.172;11.484;2023-03-01T17:41:17;4.50;99.90
43665;DHT22;29263;48.172;11.484;2023-03-01T17:43:46;4.40;99.90
43665;DHT22;29263;48.172;11.484;2023-03-01T17:46:11;4.30;99.90
43665;DHT22;29263;48.172;11.484;2023-03-01T17:48:37;4.30;99.90
43665;DHT22;29263;48.172;11.484;2023-03-01T17:51:08;4.20;99.90